sensor_id;sensor_type;location;lat;lon;timestamp;temperature;humidity
75517;DHT22;64097;52.548;13.406;2022-12-07T06:02:40;9.40;65.90
75517;DHT22;64097;52.548;13.406;2022-12-07T06:05:06;9.40;65.90
75517;DHT22;64097;52.548;13.406;2022-12-07T06:07:32;9.40;65.90
75517;DHT22;64097;52.548;13.406;2022-12-07T06:09:58;9.40;65.90
75517;DHT22;64097;52.548;13.406;2022-12-07T06:12:24;9.50;65.90
75517;DHT22;64097;52.548;13.406;2022-12-07T06:15:04;9.50;65.90
75517;DHT22;64097;52.548;13.406;2022-12-07T06:17:30;9.50;65.90
75517;DHT22;64097;52.548;13.406;2022-12-07T06:19:55;9.50;66.10
75517;DHT22;64097;52.548;13.406;2022-12-07T06:22:21;9.50;66.30
75517;DHT22;64097;52.548;13.406;2022-12-07T06:24:47;9.50;66.40
75517;DHT22;64097;52.548;13.406;2022-12-07T06:27:13;9.60;66.50
75517;DHT22;64097;52.548;13.406;2022-12-07T06:29:38;9.60;66.50
75517;DHT22;64097;52.548;13.406;2022-12-07T06:32:04;9.60;66.60
75517;DHT22;64097;52.548;13.406;2022-12-07T06:34:30;9.60;66.70
75517;DHT22;64097;52.548;13.406;2022-12-07T06:36:56;9.60;66.70
75517;DHT22;64097;52.548;13.406;2022-12-07T06:39:25;9.60;66.90
75517;DHT22;64097;52.548;13.406;2022-12-07T06:41:51;9.60;67.00
75517;DHT22;64097;52.548;13.406;2022-12-07T06:44:20;9.60;66.90
75517;DHT22;64097;52.548;13.406;2022-12-07T06:46:47;9.60;66.90
75517;DHT22;64097;52.548;13.406;2022-12-07T06:49:13;9.60;67.00
75517;DHT22;64097;52.548;13.406;2022-12-07T06:51:39;9.60;66.90
75517;DHT22;64097;52.548;13.406;2022-12-07T06:54:13;9.50;67.20
75517;DHT22;64097;52.548;13.406;2022-12-07T06:56:39;9.60;67.30
75517;DHT22;64097;52.548;13.406;2022-12-07T06:59:06;9.60;67.40
75517;DHT22;64097;52.548;13.406;2022-12-07T07:01:33;9.60;67.30
75517;DHT22;64097;52.548;13.406;2022-12-07T07:03:59;9.60;67.20
75517;DHT22;64097;52.548;13.406;2022-12-07T07:06:24;9.60;67.20
75517;DHT22;64097;52.548;13.406;2022-12-07T07:08:50;9.60;67.20
75517;DHT22;64097;52.548;13.406;2022-12-07T07:11:16;9.60;67.20
75517;DHT22;64097;52.548;13.406;2022-12-07T07:13:42;9.70;67.30
75517;DHT22;64097;52.548;13.406;2022-12-07T07:16:08;9.70;67.60
75517;DHT22;64097;52.548;13.406;2022-12-07T07:18:34;9.70;67.30
75517;DHT22;64097;52.548;13.406;2022-12-07T07:21:01;9.70;67.20
75517;DHT22;64097;52.548;13.406;2022-12-07T07:23:27;9.70;67.20
75517;DHT22;64097;52.548;13.406;2022-12-07T07:25:53;9.80;67.20
75517;DHT22;64097;52.548;13.406;2022-12-07T07:28:19;9.80;67.10
75517;DHT22;64097;52.548;13.406;2022-12-07T07:30:46;9.80;67.00
75517;DHT22;64097;52.548;13.406;2022-12-07T07:33:12;9.80;67.00
75517;DHT22;64097;52.548;13.406;2022-12-07T07:35:38;9.80;66.90
75517;DHT22;64097;52.548;13.406;2022-12-07T07:38:05;9.80;66.80
75517;DHT22;64097;52.548;13.406;2022-12-07T07:40:31;9.80;66.80
75517;DHT22;64097;52.548;13.406;2022-12-07T07:42:58;9.80;66.80
75517;DHT22;64097;52.548;13.406;2022-12-07T07:45:25;9.80;66.60
75517;DHT22;64097;52.548;13.406;2022-12-07T07:47:51;9.80;66.60
75517;DHT22;64097;52.548;13.406;2022-12-07T07:50:18;9.80;66.30
75517;DHT22;64097;52.548;13.406;2022-12-07T07:52:45;9.80;66.30
75517;DHT22;64097;52.548;13.406;2022-12-07T07:55:11;9.80;66.30
75517;DHT22;64097;52.548;13.406;2022-12-07T07:57:38;9.80;66.20
75517;DHT22;64097;52.548;13.406;2022-12-07T08:00:09;9.90;66.10
75517;DHT22;64097;52.548;13.406;2022-12-07T08:02:35;9.90;66.00
75517;DHT22;64097;52.548;13.406;2022-12-07T08:05:01;9.90;66.00
75517;DHT22;64097;52.548;13.406;2022-12-07T08:07:27;9.90;65.70
75517;DHT22;64097;52.548;13.406;2022-12-07T08:09:53;9.90;65.70
75517;DHT22;64097;52.548;13.406;2022-12-07T08:12:19;10.00;65.60
75517;DHT22;64097;52.548;13.406;2022-12-07T08:14:45;10.00;65.20
75517;DHT22;64097;52.548;13.406;2022-12-07T08:17:12;10.00;65.20
75517;DHT22;64097;52.548;13.406;2022-12-07T08:19:38;10.00;65.10
75517;DHT22;64097;52.548;13.406;2022-12-07T08:22:05;10.00;65.00
75517;DHT22;64097;52.548;13.406;2022-12-07T08:24:33;10.00;65.00
75517;DHT22;64097;52.548;13.406;2022-12-07T08:26:59;10.00;64.70
75517;DHT22;64097;52.548;13.406;2022-12-07T08:29:25;10.00;64.90
75517;DHT22;64097;52.548;13.406;2022-12-07T08:31:51;10.00;64.50
75517;DHT22;64097;52.548;13.406;2022-12-07T08:34:17;10.00;64.40
75517;DHT22;64097;52.548;13.406;2022-12-07T08:36:43;10.00;64.50
75517;DHT22;64097;52.548;13.406;2022-12-07T08:39:10;10.00;64.40
75517;DHT22;64097;52.548;13.406;2022-12-07T08:41:35;10.00;64.30
75517;DHT22;64097;52.548;13.406;2022-12-07T08:44:01;10.00;64.30
75517;DHT22;64097;52.548;13.406;2022-12-07T08:46:47;10.10;64.00
75517;DHT22;64097;52.548;13.406;2022-12-07T08:49:27;10.10;63.90
75517;DHT22;64097;52.548;13.406;2022-12-07T08:51:56;10.10;63.80
75517;DHT22;64097;52.548;13.406;2022-12-07T08:54:22;10.10;63.50
75517;DHT22;64097;52.548;13.406;2022-12-07T08:56:49;10.20;63.80
75517;DHT22;64097;52.548;13.406;2022-12-07T08:59:17;10.20;63.50
75517;DHT22;64097;52.548;13.406;2022-12-07T09:01:43;10.20;63.00
75517;DHT22;64097;52.548;13.406;2022-12-07T09:04:08;10.30;62.80
75517;DHT22;64097;52.548;13.406;2022-12-07T09:06:35;10.20;62.30
75517;DHT22;64097;52.548;13.406;2022-12-07T09:09:01;10.20;61.90
75517;DHT22;64097;52.548;13.406;2022-12-07T09:11:29;10.20;61.90
75517;DHT22;64097;52.548;13.406;2022-12-07T09:13:59;10.30;62.00
75517;DHT22;64097;52.548;13.406;2022-12-07T09:16:24;10.30;61.40
75517;DHT22;64097;52.548;13.406;2022-12-07T09:18:50;10.30;61.80
75517;DHT22;64097;52.548;13.406;2022-12-07T09:21:16;10.30;61.00
75517;DHT22;64097;52.548;13.406;2022-12-07T09:23:44;10.30;61.00
75517;DHT22;64097;52.548;13.406;2022-12-07T09:26:10;10.30;60.60
75517;DHT22;64097;52.548;13.406;2022-12-07T09:28:37;10.30;60.40
75517;DHT22;64097;52.548;13.406;2022-12-07T09:31:03;10.40;60.30
75517;DHT22;64097;52.548;13.406;2022-12-07T09:33:29;10.30;60.00
75517;DHT22;64097;52.548;13.406;2022-12-07T09:35:54;10.30;59.50
75517;DHT22;64097;52.548;13.406;2022-12-07T09:38:20;10.30;59.20
75517;DHT22;64097;52.548;13.406;2022-12-07T09:40:47;10.30;58.00
75517;DHT22;64097;52.548;13.406;2022-12-07T09:43:24;10.20;58.00
75517;DHT22;64097;52.548;13.406;2022-12-07T09:45:52;10.20;58.40
75517;DHT22;64097;52.548;13.406;2022-12-07T09:48:33;10.20;58.20
75517;DHT22;64097;52.548;13.406;2022-12-07T09:51:02;10.20;58.30
75517;DHT22;64097;52.548;13.406;2022-12-07T09:53:34;10.20;58.50
75517;DHT22;64097;52.548;13.406;2022-12-07T09:56:02;10.30;58.20
75517;DHT22;64097;52.548;13.406;2022-12-07T09:58:29;10.20;58.30
75517;DHT22;64097;52.548;13.406;2022-12-07T10:01:11;10.30;58.30
75517;DHT22;64097;52.548;13.406;2022-12-07T10:03:40;10.20;58.00
75517;DHT22;64097;52.548;13.406;2022-12-07T10:06:07;10.20;57.80
75517;DHT22;64097;52.548;13.406;2022-12-07T10:08:33;10.20;57.80
75517;DHT22;64097;52.548;13.406;2022-12-07T10:11:01;10.20;57.70
75517;DHT22;64097;52.548;13.406;2022-12-07T10:13:35;10.20;57.60
75517;DHT22;64097;52.548;13.406;2022-12-07T10:16:03;10.20;57.80
75517;DHT22;64097;52.548;13.406;2022-12-07T10:18:35;10.10;57.40
75517;DHT22;64097;52.548;13.406;2022-12-07T10:24:21;10.10;57.30
75517;DHT22;64097;52.548;13.406;2022-12-07T10:29:28;10.20;57.40
75517;DHT22;64097;52.548;13.406;2022-12-07T10:32:26;10.10;57.30
75517;DHT22;64097;52.548;13.406;2022-12-07T10:35:25;10.20;57.30
75517;DHT22;64097;52.548;13.406;2022-12-07T10:37:54;10.20;57.60
75517;DHT22;64097;52.548;13.406;2022-12-07T10:40:33;10.20;57.40
75517;DHT22;64097;52.548;13.406;2022-12-07T10:48:28;10.30;57.40
75517;DHT22;64097;52.548;13.406;2022-12-07T10:53:59;10.30;57.50
75517;DHT22;64097;52.548;13.406;2022-12-07T11:04:21;10.30;57.50
75517;DHT22;64097;52.548;13.406;2022-12-07T11:15:18;10.30;57.60
75517;DHT22;64097;52.548;13.406;2022-12-07T11:20:51;10.30;57.70
75517;DHT22;64097;52.548;13.406;2022-12-07T11:23:41;10.40;58.00
75517;DHT22;64097;52.548;13.406;2022-12-07T11:29:13;10.40;58.00
75517;DHT22;64097;52.548;13.406;2022-12-07T11:31:52;10.40;58.00
75517;DHT22;64097;52.548;13.406;2022-12-07T11:37:24;10.40;57.70
75517;DHT22;64097;52.548;13.406;2022-12-07T11:39:59;10.40;57.60
75517;DHT22;64097;52.548;13.406;2022-12-07T11:42:38;10.40;57.70
75517;DHT22;64097;52.548;13.406;2022-12-07T11:45:26;10.40;57.90
75517;DHT22;64097;52.548;13.406;2022-12-07T11:48:15;10.40;58.10
75517;DHT22;64097;52.548;13.406;2022-12-07T11:50:52;10.40;58.20
75517;DHT22;64097;52.548;13.406;2022-12-07T11:56:09;10.40;58.40
75517;DHT22;64097;52.548;13.406;2022-12-07T11:58:45;10.50;58.50
75517;DHT22;64097;52.548;13.406;2022-12-07T12:01:24;10.50;58.50
75517;DHT22;64097;52.548;13.406;2022-12-07T12:06:32;10.50;58.30
75517;DHT22;64097;52.548;13.406;2022-12-07T12:22:36;10.60;58.20
75517;DHT22;64097;52.548;13.406;2022-12-07T12:25:17;10.70;58.10
75517;DHT22;64097;52.548;13.406;2022-12-07T12:27:46;10.70;58.20
75517;DHT22;64097;52.548;13.406;2022-12-07T12:30:35;10.70;58.20
75517;DHT22;64097;52.548;13.406;2022-12-07T12:33:28;10.70;58.30
75517;DHT22;64097;52.548;13.406;2022-12-07T12:39:08;10.80;58.10
75517;DHT22;64097;52.548;13.406;2022-12-07T12:49:40;10.80;57.70
75517;DHT22;64097;52.548;13.406;2022-12-07T12:55:11;10.70;58.00
75517;DHT22;64097;52.548;13.406;2022-12-07T12:57:40;10.70;58.10
75517;DHT22;64097;52.548;13.406;2022-12-07T13:00:20;10.70;58.20
75517;DHT22;64097;52.548;13.406;2022-12-07T13:02:56;10.80;58.20
75517;DHT22;64097;52.548;13.406;2022-12-07T13:05:30;10.80;58.10
75517;DHT22;64097;52.548;13.406;2022-12-07T13:10:34;10.70;58.10
75517;DHT22;64097;52.548;13.406;2022-12-07T13:15:42;10.70;58.10
75517;DHT22;64097;52.548;13.406;2022-12-07T13:23:21;10.70;58.10
75517;DHT22;64097;52.548;13.406;2022-12-07T13:26:03;10.70;58.10
75517;DHT22;64097;52.548;13.406;2022-12-07T13:28:36;10.60;58.20
75517;DHT22;64097;52.548;13.406;2022-12-07T13:31:13;10.60;58.20
75517;DHT22;64097;52.548;13.406;2022-12-07T13:33:43;10.60;58.40
75517;DHT22;64097;52.548;13.406;2022-12-07T13:36:26;10.60;58.50
75517;DHT22;64097;52.548;13.406;2022-12-07T13:38:56;10.60;58.40
75517;DHT22;64097;52.548;13.406;2022-12-07T13:41:27;10.60;58.50
75517;DHT22;64097;52.548;13.406;2022-12-07T13:44:01;10.60;58.50
75517;DHT22;64097;52.548;13.406;2022-12-07T13:46:53;10.50;58.40
75517;DHT22;64097;52.548;13.406;2022-12-07T13:49:25;10.60;58.60
75517;DHT22;64097;52.548;13.406;2022-12-07T13:51:53;10.60;58.70
75517;DHT22;64097;52.548;13.406;2022-12-07T13:54:20;10.60;58.70
75517;DHT22;64097;52.548;13.406;2022-12-07T13:56:51;10.60;59.20
75517;DHT22;64097;52.548;13.406;2022-12-07T13:59:23;10.60;58.60
75517;DHT22;64097;52.548;13.406;2022-12-07T14:07:27;10.60;58.00
75517;DHT22;64097;52.548;13.406;2022-12-07T14:10:02;10.70;58.00
75517;DHT22;64097;52.548;13.406;2022-12-07T14:12:29;10.70;58.00
75517;DHT22;64097;52.548;13.406;2022-12-07T14:14:57;10.70;58.00
75517;DHT22;64097;52.548;13.406;2022-12-07T14:17:24;10.60;57.50
75517;DHT22;64097;52.548;13.406;2022-12-07T14:20:01;10.60;57.50
75517;DHT22;64097;52.548;13.406;2022-12-07T14:22:35;10.60;57.70
75517;DHT22;64097;52.548;13.406;2022-12-07T14:25:18;10.60;57.80
75517;DHT22;64097;52.548;13.406;2022-12-07T14:30:18;10.50;58.00
75517;DHT22;64097;52.548;13.406;2022-12-07T14:32:52;10.50;58.10
75517;DHT22;64097;52.548;13.406;2022-12-07T14:35:18;10.50;58.20
75517;DHT22;64097;52.548;13.406;2022-12-07T14:37:47;10.50;58.30
75517;DHT22;64097;52.548;13.406;2022-12-07T14:40:19;10.50;58.40
75517;DHT22;64097;52.548;13.406;2022-12-07T14:42:47;10.40;58.50
75517;DHT22;64097;52.548;13.406;2022-12-07T14:45:17;10.40;58.60
75517;DHT22;64097;52.548;13.406;2022-12-07T14:47:44;10.40;58.70
75517;DHT22;64097;52.548;13.406;2022-12-07T14:50:15;10.40;58.70
75517;DHT22;64097;52.548;13.406;2022-12-07T14:52:45;10.40;58.80
75517;DHT22;64097;52.548;13.406;2022-12-07T14:55:26;10.40;58.70
75517;DHT22;64097;52.548;13.406;2022-12-07T14:57:52;10.40;58.80
75517;DHT22;64097;52.548;13.406;2022-12-07T15:00:19;10.40;58.90
75517;DHT22;64097;52.548;13.406;2022-12-07T15:02:47;10.30;58.90
75517;DHT22;64097;52.548;13.406;2022-12-07T15:05:13;10.30;58.90
75517;DHT22;64097;52.548;13.406;2022-12-07T15:07:39;10.30;59.00
75517;DHT22;64097;52.548;13.406;2022-12-07T15:10:08;10.30;59.00
75517;DHT22;64097;52.548;13.406;2022-12-07T15:12:35;10.20;59.20
75517;DHT22;64097;52.548;13.406;2022-12-07T15:15:01;10.20;60.00
75517;DHT22;64097;52.548;13.406;2022-12-07T15:17:27;10.10;59.40
75517;DHT22;64097;52.548;13.406;2022-12-07T15:19:52;10.10;59.50
75517;DHT22;64097;52.548;13.406;2022-12-07T15:22:18;10.10;59.50
75517;DHT22;64097;52.548;13.406;2022-12-07T15:24:44;10.10;59.50
75517;DHT22;64097;52.548;13.406;2022-12-07T15:27:09;10.10;59.50
75517;DHT22;64097;52.548;13.406;2022-12-07T15:29:35;10.10;59.50
75517;DHT22;64097;52.548;13.406;2022-12-07T15:32:01;10.10;59.30
75517;DHT22;64097;52.548;13.406;2022-12-07T15:34:27;10.10;59.10
75517;DHT22;64097;52.548;13.406;2022-12-07T15:36:54;10.10;59.00
75517;DHT22;64097;52.548;13.406;2022-12-07T15:39:20;10.10;58.80
75517;DHT22;64097;52.548;13.406;2022-12-07T15:41:47;10.10;58.80
75517;DHT22;64097;52.548;13.406;2022-12-07T15:44:13;10.10;58.70
75517;DHT22;64097;52.548;13.406;2022-12-07T15:46:57;10.00;58.70
75517;DHT22;64097;52.548;13.406;2022-12-07T15:49:23;10.00;58.60
75517;DHT22;64097;52.548;13.406;2022-12-07T15:51:48;10.00;58.80
75517;DHT22;64097;52.548;13.406;2022-12-07T15:54:22;10.00;58.80
75517;DHT22;64097;52.548;13.406;2022-12-07T15:56:48;10.00;58.80
75517;DHT22;64097;52.548;13.406;2022-12-07T15:59:15;10.00;58.80
75517;DHT22;64097;52.548;13.406;2022-12-07T16:01:41;10.00;59.60
75517;DHT22;64097;52.548;13.406;2022-12-07T16:04:07;10.00;58.90
75517;DHT22;64097;52.548;13.406;2022-12-07T16:06:32;10.00;58.90
75517;DHT22;64097;52.548;13.406;2022-12-07T16:08:58;10.00;59.00
75517;DHT22;64097;52.548;13.406;2022-12-07T16:11:24;10.00;59.00
75517;DHT22;64097;52.548;13.406;2022-12-07T16:13:50;10.00;59.00
75517;DHT22;64097;52.548;13.406;2022-12-07T16:16:17;10.00;58.80
75517;DHT22;64097;52.548;13.406;2022-12-07T16:18:45;10.00;58.80
75517;DHT22;64097;52.548;13.406;2022-12-07T16:21:12;10.00;58.90
75517;DHT22;64097;52.548;13.406;2022-12-07T16:23:38;10.00;58.80
75517;DHT22;64097;52.548;13.406;2022-12-07T16:28:34;9.90;58.70
75517;DHT22;64097;52.548;13.406;2022-12-07T16:31:09;9.90;58.80
75517;DHT22;64097;52.548;13.406;2022-12-07T16:33:37;9.90;58.70
75517;DHT22;64097;52.548;13.406;2022-12-07T16:36:05;9.80;58.70
75517;DHT22;64097;52.548;13.406;2022-12-07T16:38:31;9.80;58.80
75517;DHT22;64097;52.548;13.406;2022-12-07T16:40:57;9.80;58.80
75517;DHT22;64097;52.548;13.406;2022-12-07T16:43:23;9.80;58.80
75517;DHT22;64097;52.548;13.406;2022-12-07T16:45:49;9.80;58.90
75517;DHT22;64097;52.548;13.406;2022-12-07T16:48:16;9.80;59.00
75517;DHT22;64097;52.548;13.406;2022-12-07T16:50:42;9.70;59.00
75517;DHT22;64097;52.548;13.406;2022-12-07T16:53:09;9.70;59.10
75517;DHT22;64097;52.548;13.406;2022-12-07T16:55:39;9.60;59.20
75517;DHT22;64097;52.548;13.406;2022-12-07T16:58:05;9.60;59.30
75517;DHT22;64097;52.548;13.406;2022-12-07T17:00:31;9.50;59.20
75517;DHT22;64097;52.548;13.406;2022-12-07T17:02:57;9.50;59.40
75517;DHT22;64097;52.548;13.406;2022-12-07T17:05:23;9.50;59.50
75517;DHT22;64097;52.548;13.406;2022-12-07T17:07:50;9.40;59.50
75517;DHT22;64097;52.548;13.406;2022-12-07T17:10:15;9.40;59.50
75517;DHT22;64097;52.548;13.406;2022-12-07T17:12:41;9.40;59.60
75517;DHT22;64097;52.548;13.406;2022-12-07T17:15:08;9.40;59.60
75517;DHT22;64097;52.548;13.406;2022-12-07T17:17:48;9.40;59.60
75517;DHT22;64097;52.548;13.406;2022-12-07T17:20:16;9.30;59.60
75517;DHT22;64097;52.548;13.406;2022-12-07T17:22:43;9.30;59.60
75517;DHT22;64097;52.548;13.406;2022-12-07T17:25:08;9.30;59.60
75517;DHT22;64097;52.548;13.406;2022-12-07T17:27:35;9.30;59.60
75517;DHT22;64097;52.548;13.406;2022-12-07T17:30:05;9.30;59.70
75517;DHT22;64097;52.548;13.406;2022-12-07T17:32:31;9.20;59.60
75517;DHT22;64097;52.548;13.406;2022-12-07T17:34:57;9.20;59.60
75517;DHT22;64097;52.548;13.406;2022-12-07T17:37:23;9.20;59.60
75517;DHT22;64097;52.548;13.406;2022-12-07T17:39:48;9.20;59.60
75517;DHT22;64097;52.548;13.406;2022-12-07T17:42:14;9.20;59.60
75517;DHT22;64097;52.548;13.406;2022-12-07T17:44:59;9.20;59.50
75517;DHT22;64097;52.548;13.406;2022-12-07T17:47:25;9.20;59.50
75517;DHT22;64097;52.548;13.406;2022-12-07T17:49:50;9.10;59.60
75517;DHT22;64097;52.548;13.406;2022-12-07T17:52:16;9.10;60.40
75517;DHT22;64097;52.548;13.406;2022-12-07T17:55:01;9.10;59.60
75517;DHT22;64097;52.548;13.406;2022-12-07T17:57:26;9.00;59.60
75517;DHT22;64097;52.548;13.406;2022-12-07T17:59:52;9.00;59.50
75517;DHT22;64097;52.548;13.406;2022-12-07T18:02:19;9.00;59.60
75517;DHT22;64097;52.548;13.406;2022-12-07T18:04:45;9.00;59.70
75517;DHT22;64097;52.548;13.406;2022-12-07T18:07:12;9.00;59.70
75517;DHT22;64097;52.548;13.406;2022-12-07T18:09:38;9.00;59.70
75517;DHT22;64097;52.548;13.406;2022-12-07T18:12:04;8.90;59.70
75517;DHT22;64097;52.548;13.406;2022-12-07T18:14:29;8.90;59.70
75517;DHT22;64097;52.548;13.406;2022-12-07T18:16:55;8.90;59.70
75517;DHT22;64097;52.548;13.406;2022-12-07T18:19:21;8.90;59.70
75517;DHT22;64097;52.548;13.406;2022-12-07T18:21:46;8.90;59.80
75517;DHT22;64097;52.548;13.406;2022-12-07T18:24:14;8.80;59.80
75517;DHT22;64097;52.548;13.406;2022-12-07T18:26:40;8.80;60.60
75517;DHT22;64097;52.548;13.406;2022-12-07T18:29:07;8.80;59.80
75517;DHT22;64097;52.548;13.406;2022-12-07T18:31:34;8.80;59.90
75517;DHT22;64097;52.548;13.406;2022-12-07T18:34:01;8.80;59.90
75517;DHT22;64097;52.548;13.406;2022-12-07T18:36:28;8.80;59.90
75517;DHT22;64097;52.548;13.406;2022-12-07T18:38:54;8.80;59.90
75517;DHT22;64097;52.548;13.406;2022-12-07T18:41:19;8.80;60.00
75517;DHT22;64097;52.548;13.406;2022-12-07T18:43:45;8.80;59.90
75517;DHT22;64097;52.548;13.406;2022-12-07T18:46:13;8.70;59.90
75517;DHT22;64097;52.548;13.406;2022-12-07T18:48:39;8.70;60.90
75517;DHT22;64097;52.548;13.406;2022-12-07T18:51:07;8.70;60.00
75517;DHT22;64097;52.548;13.406;2022-12-07T18:53:33;8.70;60.00
75517;DHT22;64097;52.548;13.406;2022-12-07T18:56:09;8.70;60.10
75517;DHT22;64097;52.548;13.406;2022-12-07T18:58:35;8.60;60.00
75517;DHT22;64097;52.548;13.406;2022-12-07T19:01:01;8.60;60.00
75517;DHT22;64097;52.548;13.406;2022-12-07T19:03:27;8.60;60.00
75517;DHT22;64097;52.548;13.406;2022-12-07T19:05:53;8.60;59.90
75517;DHT22;64097;52.548;13.406;2022-12-07T19:08:22;8.60;59.90
75517;DHT22;64097;52.548;13.406;2022-12-07T19:10:48;8.50;59.80
75517;DHT22;64097;52.548;13.406;2022-12-07T19:13:15;8.50;59.80
75517;DHT22;64097;52.548;13.406;2022-12-07T19:15:40;8.50;59.70
75517;DHT22;64097;52.548;13.406;2022-12-07T19:18:06;8.50;59.80
75517;DHT22;64097;52.548;13.406;2022-12-07T19:20:32;8.50;59.80
75517;DHT22;64097;52.548;13.406;2022-12-07T19:22:58;8.50;59.80
75517;DHT22;64097;52.548;13.406;2022-12-07T19:25:24;8.50;59.90
75517;DHT22;64097;52.548;13.406;2022-12-07T19:27:49;8.50;59.80
75517;DHT22;64097;52.548;13.406;2022-12-07T19:30:15;8.40;59.70
75517;DHT22;64097;52.548;13.406;2022-12-07T19:32:41;8.50;59.70
75517;DHT22;64097;52.548;13.406;2022-12-07T19:35:07;8.40;59.60
75517;DHT22;64097;52.548;13.406;2022-12-07T19:37:33;8.40;59.70
75517;DHT22;64097;52.548;13.406;2022-12-07T19:39:58;8.40;59.60
75517;DHT22;64097;52.548;13.406;2022-12-07T19:42:24;8.40;59.60
75517;DHT22;64097;52.548;13.406;2022-12-07T19:44:50;8.40;59.60
75517;DHT22;64097;52.548;13.406;2022-12-07T19:47:15;8.40;59.80
75517;DHT22;64097;52.548;13.406;2022-12-07T19:49:43;8.30;59.80
75517;DHT22;64097;52.548;13.406;2022-12-07T19:52:11;8.30;59.80
75517;DHT22;64097;52.548;13.406;2022-12-07T19:54:37;8.30;59.90
75517;DHT22;64097;52.548;13.406;2022-12-07T19:57:04;8.30;60.00
75517;DHT22;64097;52.548;13.406;2022-12-07T19:59:30;8.30;60.10
75517;DHT22;64097;52.548;13.406;2022-12-07T20:01:56;8.20;60.10
75517;DHT22;64097;52.548;13.406;2022-12-07T20:04:24;8.20;60.20
75517;DHT22;64097;52.548;13.406;2022-12-07T20:06:56;8.20;60.30
75517;DHT22;64097;52.548;13.406;2022-12-07T20:09:23;8.20;60.40
75517;DHT22;64097;52.548;13.406;2022-12-07T20:11:49;8.20;60.40
75517;DHT22;64097;52.548;13.406;2022-12-07T20:14:34;8.20;60.50
75517;DHT22;64097;52.548;13.406;2022-12-07T20:17:00;8.20;60.50
75517;DHT22;64097;52.548;13.406;2022-12-07T20:19:26;8.20;60.60
75517;DHT22;64097;52.548;13.406;2022-12-07T20:21:51;8.20;60.80
75517;DHT22;64097;52.548;13.406;2022-12-07T20:24:22;8.30;60.90
75517;DHT22;64097;52.548;13.406;2022-12-07T20:26:50;8.30;60.90
75517;DHT22;64097;52.548;13.406;2022-12-07T20:29:18;8.30;60.90
75517;DHT22;64097;52.548;13.406;2022-12-07T20:31:44;8.30;60.90
75517;DHT22;64097;52.548;13.406;2022-12-07T20:34:11;8.30;60.90
75517;DHT22;64097;52.548;13.406;2022-12-07T20:36:37;8.30;60.90
75517;DHT22;64097;52.548;13.406;2022-12-07T20:39:04;8.20;60.90
75517;DHT22;64097;52.548;13.406;2022-12-07T20:41:31;8.20;61.10
75517;DHT22;64097;52.548;13.406;2022-12-07T20:44:15;8.20;61.20
75517;DHT22;64097;52.548;13.406;2022-12-07T20:46:41;8.20;61.30
75517;DHT22;64097;52.548;13.406;2022-12-07T20:49:07;8.20;61.40
75517;DHT22;64097;52.548;13.406;2022-12-07T20:51:33;8.30;61.60
75517;DHT22;64097;52.548;13.406;2022-12-07T20:53:59;8.30;61.60
75517;DHT22;64097;52.548;13.406;2022-12-07T20:56:30;8.30;61.70
75517;DHT22;64097;52.548;13.406;2022-12-07T20:58:57;8.30;61.70
75517;DHT22;64097;52.548;13.406;2022-12-07T21:01:23;8.40;61.60
75517;DHT22;64097;52.548;13.406;2022-12-07T21:03:53;8.40;61.40
75517;DHT22;64097;52.548;13.406;2022-12-07T21:06:19;8.40;61.40
75517;DHT22;64097;52.548;13.406;2022-12-07T21:08:47;8.40;61.30
75517;DHT22;64097;52.548;13.406;2022-12-07T21:11:14;8.40;61.20
75517;DHT22;64097;52.548;13.406;2022-12-07T21:13:40;8.40;61.20
75517;DHT22;64097;52.548;13.406;2022-12-07T21:16:08;8.40;61.20
75517;DHT22;64097;52.548;13.406;2022-12-07T21:18:34;8.40;61.20
75517;DHT22;64097;52.548;13.406;2022-12-07T21:21:04;8.30;61.20
75517;DHT22;64097;52.548;13.406;2022-12-07T21:23:30;8.30;61.20
75517;DHT22;64097;52.548;13.406;2022-12-07T21:25:56;8.30;61.40
75517;DHT22;64097;52.548;13.406;2022-12-07T21:28:22;8.30;61.40
75517;DHT22;64097;52.548;13.406;2022-12-07T21:30:47;8.30;61.50
75517;DHT22;64097;52.548;13.406;2022-12-07T21:33:13;8.30;61.70
75517;DHT22;64097;52.548;13.406;2022-12-07T21:35:39;8.30;61.70
75517;DHT22;64097;52.548;13.406;2022-12-07T21:38:04;8.30;61.70
75517;DHT22;64097;52.548;13.406;2022-12-07T21:40:30;8.30;61.70
75517;DHT22;64097;52.548;13.406;2022-12-07T21:42:56;8.30;61.70
75517;DHT22;64097;52.548;13.406;2022-12-07T21:45:21;8.20;61.60
75517;DHT22;64097;52.548;13.406;2022-12-07T21:47:47;8.20;61.60
75517;DHT22;64097;52.548;13.406;2022-12-07T21:50:13;8.20;61.70
75517;DHT22;64097;52.548;13.406;2022-12-07T21:52:38;8.20;61.70
75517;DHT22;64097;52.548;13.406;2022-12-07T21:55:04;8.10;61.70
75517;DHT22;64097;52.548;13.406;2022-12-07T21:57:33;8.10;61.80
75517;DHT22;64097;52.548;13.406;2022-12-07T21:59:59;8.10;62.00
75517;DHT22;64097;52.548;13.406;2022-12-07T22:02:24;8.10;62.00
75517;DHT22;64097;52.548;13.406;2022-12-07T22:04:50;8.10;62.00
75517;DHT22;64097;52.548;13.406;2022-12-07T22:07:16;8.00;62.10
75517;DHT22;64097;52.548;13.406;2022-12-07T22:09:41;8.00;62.20
75517;DHT22;64097;52.548;13.406;2022-12-07T22:12:07;8.00;62.30
75517;DHT22;64097;52.548;13.406;2022-12-07T22:14:33;8.00;62.30
75517;DHT22;64097;52.548;13.406;2022-12-07T22:17:17;8.00;62.40
75517;DHT22;64097;52.548;13.406;2022-12-07T22:19:42;8.00;62.40
75517;DHT22;64097;52.548;13.406;2022-12-07T22:22:12;7.90;62.20
75517;DHT22;64097;52.548;13.406;2022-12-07T22:24:38;8.00;62.30
75517;DHT22;64097;52.548;13.406;2022-12-07T22:27:04;7.90;62.30
75517;DHT22;64097;52.548;13.406;2022-12-07T22:29:30;8.00;62.50
75517;DHT22;64097;52.548;13.406;2022-12-07T22:31:55;8.00;62.60
75517;DHT22;64097;52.548;13.406;2022-12-07T22:34:21;8.00;62.70
75517;DHT22;64097;52.548;13.406;2022-12-07T22:36:47;7.90;62.70
75517;DHT22;64097;52.548;13.406;2022-12-07T22:39:12;8.00;62.80
75517;DHT22;64097;52.548;13.406;2022-12-07T22:41:38;8.00;62.80
75517;DHT22;64097;52.548;13.406;2022-12-07T22:44:05;8.00;62.70
75517;DHT22;64097;52.548;13.406;2022-12-07T22:46:32;8.10;62.70
75517;DHT22;64097;52.548;13.406;2022-12-07T22:48:59;8.10;62.70
75517;DHT22;64097;52.548;13.406;2022-12-07T22:51:30;8.10;62.50
75517;DHT22;64097;52.548;13.406;2022-12-07T22:53:59;8.10;62.40
75517;DHT22;64097;52.548;13.406;2022-12-07T22:56:27;8.00;62.30
75517;DHT22;64097;52.548;13.406;2022-12-07T22:58:53;8.00;63.20
75517;DHT22;64097;52.548;13.406;2022-12-07T23:01:20;8.00;63.20
75517;DHT22;64097;52.548;13.406;2022-12-07T23:03:46;8.00;62.40
75517;DHT22;64097;52.548;13.406;2022-12-07T23:06:18;8.00;62.40
75517;DHT22;64097;52.548;13.406;2022-12-07T23:08:44;8.00;62.40